sensor_id;sensor_type;location;lat;lon;timestamp;temperature;humidity
14331;DHT22;7249;49.376;11.080;2023-12-20T00:01:00;5.80;99.90
14331;DHT22;7249;49.376;11.080;2023-12-20T00:03:26;5.90;99.90
14331;DHT22;7249;49.376;11.080;2023-12-20T00:05:51;5.90;99.90
14331;DHT22;7249;49.376;11.080;2023-12-20T00:08:17;5.90;99.90
14331;DHT22;7249;49.376;11.080;2023-12-20T00:10:45;5.90;99.90
14331;DHT22;7249;49.376;11.080;2023-12-20T00:13:11;5.90;99.90
14331;DHT22;7249;49.376;11.080;2023-12-20T00:15:36;5.90;99.90
14331;DHT22;7249;49.376;11.080;2023-12-20T00:18:03;5.80;99.90
14331;DHT22;7249;49.376;11.080;2023-12-20T00:20:28;5.90;99.90
14331;DHT22;7249;49.376;11.080;2023-12-20T00:22:56;5.90;99.90
14331;DHT22;7249;49.376;11.080;2023-12-20T00:25:23;5.90;99.90
14331;DHT22;7249;49.376;11.080;2023-12-20T00:27:49;5.90;99.90
14331;DHT22;7249;49.376;11.080;2023-12-20T00:30:15;5.90;99.90
14331;DHT22;7249;49.376;11.080;2023-12-20T00:32:40;5.80;99.90
14331;DHT22;7249;49.376;11.080;2023-12-20T00:35:15;5.90;99.90
14331;DHT22;7249;49.376;11.080;2023-12-20T00:37:41;5.80;99.90
14331;DHT22;7249;49.376;11.080;2023-12-20T00:40:07;5.80;99.90
14331;DHT22;7249;49.376;11.080;2023-12-20T00:42:33;5.80;99.90
14331;DHT22;7249;49.376;11.080;2023-12-20T00:44:59;5.80;99.90
14331;DHT22;7249;49.376;11.080;2023-12-20T00:47:25;5.80;99.90
14331;DHT22;7249;49.376;11.080;2023-12-20T00:49:50;5.80;99.90
14331;DHT22;7249;49.376;11.080;2023-12-20T00:52:16;5.80;99.90
14331;DHT22;7249;49.376;11.080;2023-12-20T00:54:43;5.90;99.90
14331;DHT22;7249;49.376;11.080;2023-12-20T00:57:08;5.90;99.90
14331;DHT22;7249;49.376;11.080;2023-12-20T00:59:34;5.90;99.90
14331;DHT22;7249;49.376;11.080;2023-12-20T01:02:00;5.90;99.90
14331;DHT22;7249;49.376;11.080;2023-12-20T01:04:25;5.90;99.90
14331;DHT22;7249;49.376;11.080;2023-12-20T01:06:52;6.00;99.90
14331;DHT22;7249;49.376;11.080;2023-12-20T01:09:17;6.00;99.90
14331;DHT22;7249;49.376;11.080;2023-12-20T01:11:44;6.10;99.90
14331;DHT22;7249;49.376;11.080;2023-12-20T01:14:09;6.00;99.90
14331;DHT22;7249;49.376;11.080;2023-12-20T01:16:35;6.00;99.90
14331;DHT22;7249;49.376;11.080;2023-12-20T01:19:00;6.00;99.90
14331;DHT22;7249;49.376;11.080;2023-12-20T01:21:26;5.90;99.90
14331;DHT22;7249;49.376;11.080;2023-12-20T01:23:51;5.90;99.90
14331;DHT22;7249;49.376;11.080;2023-12-20T01:26:17;5.90;99.90
14331;DHT22;7249;49.376;11.080;2023-12-20T01:28:43;5.80;99.90
14331;DHT22;7249;49.376;11.080;2023-12-20T01:31:08;5.80;99.90
14331;DHT22;7249;49.376;11.080;2023-12-20T01:33:34;5.70;99.90
14331;DHT22;7249;49.376;11.080;2023-12-20T01:36:00;5.70;99.90
14331;DHT22;7249;49.376;11.080;2023-12-20T01:38:25;5.70;99.90
14331;DHT22;7249;49.376;11.080;2023-12-20T01:40:51;5.60;99.90
14331;DHT22;7249;49.376;11.080;2023-12-20T01:43:16;5.60;99.90
14331;DHT22;7249;49.376;11.080;2023-12-20T01:45:42;5.60;99.90
14331;DHT22;7249;49.376;11.080;2023-12-20T01:48:08;5.60;99.90
14331;DHT22;7249;49.376;11.080;2023-12-20T01:50:36;5.70;99.90
14331;DHT22;7249;49.376;11.080;2023-12-20T01:53:02;5.70;99.90
14331;DHT22;7249;49.376;11.080;2023-12-20T01:55:31;5.80;99.90
14331;DHT22;7249;49.376;11.080;2023-12-20T01:57:59;5.90;99.90
14331;DHT22;7249;49.376;11.080;2023-12-20T02:00:26;5.90;99.90
14331;DHT22;7249;49.376;11.080;2023-12-20T02:02:54;5.90;99.90
14331;DHT22;7249;49.376;11.080;2023-12-20T02:05:22;5.90;99.90
14331;DHT22;7249;49.376;11.080;2023-12-20T02:07:49;5.90;99.90
14331;DHT22;7249;49.376;11.080;2023-12-20T02:10:15;5.90;99.90
14331;DHT22;7249;49.376;11.080;2023-12-20T02:12:41;5.90;99.90
14331;DHT22;7249;49.376;11.080;2023-12-20T02:15:07;6.00;99.90
14331;DHT22;7249;49.376;11.080;2023-12-20T02:17:33;5.90;99.90
14331;DHT22;7249;49.376;11.080;2023-12-20T02:19:58;5.90;99.90
14331;DHT22;7249;49.376;11.080;2023-12-20T02:22:24;5.90;99.90
14331;DHT22;7249;49.376;11.080;2023-12-20T02:24:50;5.90;99.90
14331;DHT22;7249;49.376;11.080;2023-12-20T02:27:18;5.90;99.90
14331;DHT22;7249;49.376;11.080;2023-12-20T02:29:47;5.90;99.90
14331;DHT22;7249;49.376;11.080;2023-12-20T02:32:13;5.80;99.90
14331;DHT22;7249;49.376;11.080;2023-12-20T02:34:38;5.80;99.90
14331;DHT22;7249;49.376;11.080;2023-12-20T02:37:04;5.80;99.90
14331;DHT22;7249;49.376;11.080;2023-12-20T02:39:30;5.80;99.90
14331;DHT22;7249;49.376;11.080;2023-12-20T02:41:55;5.80;99.90
14331;DHT22;7249;49.376;11.080;2023-12-20T02:44:21;5.80;99.90
14331;DHT22;7249;49.376;11.080;2023-12-20T02:46:46;5.70;99.90
14331;DHT22;7249;49.376;11.080;2023-12-20T02:49:12;5.60;99.90
14331;DHT22;7249;49.376;11.080;2023-12-20T02:51:38;5.50;99.90
14331;DHT22;7249;49.376;11.080;2023-12-20T02:54:04;5.50;99.90
14331;DHT22;7249;49.376;11.080;2023-12-20T02:56:29;5.40;99.90
14331;DHT22;7249;49.376;11.080;2023-12-20T02:58:55;5.40;99.90
14331;DHT22;7249;49.376;11.080;2023-12-20T03:01:21;5.30;99.90
14331;DHT22;7249;49.376;11.080;2023-12-20T03:03:46;5.30;99.90
14331;DHT22;7249;49.376;11.080;2023-12-20T03:06:17;5.30;99.90
14331;DHT22;7249;49.376;11.080;2023-12-20T03:08:43;5.20;99.90
14331;DHT22;7249;49.376;11.080;2023-12-20T03:11:08;5.20;99.90
14331;DHT22;7249;49.376;11.080;2023-12-20T03:13:34;5.20;99.90
14331;DHT22;7249;49.376;11.080;2023-12-20T03:15:59;5.20;99.90
14331;DHT22;7249;49.376;11.080;2023-12-20T03:18:25;5.20;99.90
14331;DHT22;7249;49.376;11.080;2023-12-20T03:20:53;5.10;99.90
14331;DHT22;7249;49.376;11.080;2023-12-20T03:23:18;5.10;99.90
14331;DHT22;7249;49.376;11.080;2023-12-20T03:25:44;5.10;99.90
14331;DHT22;7249;49.376;11.080;2023-12-20T03:28:10;5.10;99.90
14331;DHT22;7249;49.376;11.080;2023-12-20T03:30:35;5.10;99.90
14331;DHT22;7249;49.376;11.080;2023-12-20T03:33:01;5.10;99.90
14331;DHT22;7249;49.376;11.080;2023-12-20T03:35:26;5.00;99.90
14331;DHT22;7249;49.376;11.080;2023-12-20T03:37:52;5.10;99.90
14331;DHT22;7249;49.376;11.080;2023-12-20T03:40:18;5.10;99.90
14331;DHT22;7249;49.376;11.080;2023-12-20T03:42:43;5.00;99.90
14331;DHT22;7249;49.376;11.080;2023-12-20T03:45:09;5.00;99.90
14331;DHT22;7249;49.376;11.080;2023-12-20T03:47:35;5.00;99.90
14331;DHT22;7249;49.376;11.080;2023-12-20T03:50:00;4.90;99.90
14331;DHT22;7249;49.376;11.080;2023-12-20T03:52:26;5.00;99.90
14331;DHT22;7249;49.376;11.080;2023-12-20T03:54:51;5.00;99.90
14331;DHT22;7249;49.376;11.080;2023-12-20T03:57:17;4.90;99.90
14331;DHT22;7249;49.376;11.080;2023-12-20T03:59:42;4.90;99.90
14331;DHT22;7249;49.376;11.080;2023-12-20T04:02:08;4.90;99.90
14331;DHT22;7249;49.376;11.080;2023-12-20T04:04:34;4.90;99.90
14331;DHT22;7249;49.376;11.080;2023-12-20T04:06:59;4.90;99.90
14331;DHT22;7249;49.376;11.080;2023-12-20T04:09:25;4.90;99.90
14331;DHT22;7249;49.376;11.080;2023-12-20T04:11:50;4.80;99.90
14331;DHT22;7249;49.376;11.080;2023-12-20T04:14:16;4.90;99.90
14331;DHT22;7249;49.376;11.080;2023-12-20T04:16:42;4.80;99.90
14331;DHT22;7249;49.376;11.080;2023-12-20T04:19:08;4.80;99.90
14331;DHT22;7249;49.376;11.080;2023-12-20T04:21:33;4.80;99.90
14331;DHT22;7249;49.376;11.080;2023-12-20T04:23:59;4.80;99.90
14331;DHT22;7249;49.376;11.080;2023-12-20T04:26:24;4.80;99.90
14331;DHT22;7249;49.376;11.080;2023-12-20T04:28:50;4.80;99.90
14331;DHT22;7249;49.376;11.080;2023-12-20T04:31:15;4.70;99.90
14331;DHT22;7249;49.376;11.080;2023-12-20T04:33:41;4.80;99.90
14331;DHT22;7249;49.376;11.080;2023-12-20T04:36:07;4.80;99.90
14331;DHT22;7249;49.376;11.080;2023-12-20T04:38:34;4.80;99.90
14331;DHT22;7249;49.376;11.080;2023-12-20T04:41:00;4.80;99.90
14331;DHT22;7249;49.376;11.080;2023-12-20T04:43:25;4.80;99.90
14331;DHT22;7249;49.376;11.080;2023-12-20T04:45:51;4.80;99.90
14331;DHT22;7249;49.376;11.080;2023-12-20T04:48:16;4.80;99.90
14331;DHT22;7249;49.376;11.080;2023-12-20T04:50:42;4.80;99.90
14331;DHT22;7249;49.376;11.080;2023-12-20T04:53:07;4.80;99.90
14331;DHT22;7249;49.376;11.080;2023-12-20T04:55:33;4.80;99.90
14331;DHT22;7249;49.376;11.080;2023-12-20T04:57:59;4.80;99.90
14331;DHT22;7249;49.376;11.080;2023-12-20T05:00:24;4.80;99.90
14331;DHT22;7249;49.376;11.080;2023-12-20T05:02:50;4.70;99.90
14331;DHT22;7249;49.376;11.080;2023-12-20T05:05:15;4.70;99.90
14331;DHT22;7249;49.376;11.080;2023-12-20T05:07:43;4.70;99.90
14331;DHT22;7249;49.376;11.080;2023-12-20T05:10:09;4.70;99.90
14331;DHT22;7249;49.376;11.080;2023-12-20T05:12:35;4.70;99.90
14331;DHT22;7249;49.376;11.080;2023-12-20T05:15:00;4.80;99.90
14331;DHT22;7249;49.376;11.080;2023-12-20T05:17:26;4.70;99.90
14331;DHT22;7249;49.376;11.080;2023-12-20T05:19:52;4.70;99.90
14331;DHT22;7249;49.376;11.080;2023-12-20T05:22:19;4.70;99.90
14331;DHT22;7249;49.376;11.080;2023-12-20T05:24:45;4.70;99.90
14331;DHT22;7249;49.376;11.080;2023-12-20T05:27:11;4.80;99.90
14331;DHT22;7249;49.376;11.080;2023-12-20T05:29:37;4.80;99.90
14331;DHT22;7249;49.376;11.080;2023-12-20T05:32:02;4.80;99.90
14331;DHT22;7249;49.376;11.080;2023-12-20T05:34:30;4.70;99.90
14331;DHT22;7249;49.376;11.080;2023-12-20T05:36:56;4.70;99.90
14331;DHT22;7249;49.376;11.080;2023-12-20T05:39:21;4.70;99.90
14331;DHT22;7249;49.376;11.080;2023-12-20T05:41:47;4.70;99.90
14331;DHT22;7249;49.376;11.080;2023-12-20T05:44:13;4.60;99.90
14331;DHT22;7249;49.376;11.080;2023-12-20T05:46:39;4.70;99.90
14331;DHT22;7249;49.376;11.080;2023-12-20T05:49:05;4.70;99.90
14331;DHT22;7249;49.376;11.080;2023-12-20T05:51:31;4.70;99.90
14331;DHT22;7249;49.376;11.080;2023-12-20T05:53:56;4.70;99.90
14331;DHT22;7249;49.376;11.080;2023-12-20T05:56:22;4.70;99.90
14331;DHT22;7249;49.376;11.080;2023-12-20T05:58:48;4.70;99.90
14331;DHT22;7249;49.376;11.080;2023-12-20T06:01:15;4.60;99.90
14331;DHT22;7249;49.376;11.080;2023-12-20T06:03:42;4.70;99.90
14331;DHT22;7249;49.376;11.080;2023-12-20T06:06:09;4.70;99.90
14331;DHT22;7249;49.376;11.080;2023-12-20T06:08:34;4.60;99.90
14331;DHT22;7249;49.376;11.080;2023-12-20T06:11:00;4.60;99.90
14331;DHT22;7249;49.376;11.080;2023-12-20T06:13:26;4.60;99.90
14331;DHT22;7249;49.376;11.080;2023-12-20T06:15:53;4.60;99.90
14331;DHT22;7249;49.376;11.080;2023-12-20T06:18:19;4.60;99.90
14331;DHT22;7249;49.376;11.080;2023-12-20T06:20:44;4.50;99.90
14331;DHT22;7249;49.376;11.080;2023-12-20T06:23:10;4.60;99.90
14331;DHT22;7249;49.376;11.080;2023-12-20T06:25:36;4.60;99.90
14331;DHT22;7249;49.376;11.080;2023-12-20T06:28:01;4.60;99.90
14331;DHT22;7249;49.376;11.080;2023-12-20T06:30:27;4.60;99.90
14331;DHT22;7249;49.376;11.080;2023-12-20T06:32:54;4.60;99.90
14331;DHT22;7249;49.376;11.080;2023-12-20T06:35:20;4.60;99.90
14331;DHT22;7249;49.376;11.080;2023-12-20T06:37:45;4.60;99.90
14331;DHT22;7249;49.376;11.080;2023-12-20T06:40:11;4.60;99.90
14331;DHT22;7249;49.376;11.080;2023-12-20T06:42:37;4.60;99.90
14331;DHT22;7249;49.376;11.080;2023-12-20T06:45:03;4.60;99.90
14331;DHT22;7249;49.376;11.080;2023-12-20T06:47:29;4.60;99.90
14331;DHT22;7249;49.376;11.080;2023-12-20T06:49:54;4.60;99.90
14331;DHT22;7249;49.376;11.080;2023-12-20T06:52:20;4.60;99.90
14331;DHT22;7249;49.376;11.080;2023-12-20T06:54:46;4.60;99.90
14331;DHT22;7249;49.376;11.080;2023-12-20T06:57:11;4.70;99.90
14331;DHT22;7249;49.376;11.080;2023-12-20T06:59:41;4.70;99.90
14331;DHT22;7249;49.376;11.080;2023-12-20T07:02:08;4.70;99.90
14331;DHT22;7249;49.376;11.080;2023-12-20T07:04:34;4.70;99.90
14331;DHT22;7249;49.376;11.080;2023-12-20T07:06:59;4.70;99.90
14331;DHT22;7249;49.376;11.080;2023-12-20T07:09:27;4.70;99.90
14331;DHT22;7249;49.376;11.080;2023-12-20T07:11:53;4.70;99.90
14331;DHT22;7249;49.376;11.080;2023-12-20T07:14:19;4.80;99.90
14331;DHT22;7249;49.376;11.080;2023-12-20T07:16:44;4.80;99.90
14331;DHT22;7249;49.376;11.080;2023-12-20T07:19:10;4.80;99.90
14331;DHT22;7249;49.376;11.080;2023-12-20T07:21:35;4.80;99.90
14331;DHT22;7249;49.376;11.080;2023-12-20T07:24:01;4.80;99.90
14331;DHT22;7249;49.376;11.080;2023-12-20T07:26:26;4.80;99.90
14331;DHT22;7249;49.376;11.080;2023-12-20T07:28:52;4.80;99.90
14331;DHT22;7249;49.376;11.080;2023-12-20T07:31:18;4.80;99.90
14331;DHT22;7249;49.376;11.080;2023-12-20T07:33:43;4.80;99.90
14331;DHT22;7249;49.376;11.080;2023-12-20T07:36:09;4.80;99.90
14331;DHT22;7249;49.376;11.080;2023-12-20T07:38:35;4.90;99.90
14331;DHT22;7249;49.376;11.080;2023-12-20T07:41:01;4.90;99.90
14331;DHT22;7249;49.376;11.080;2023-12-20T07:43:26;4.90;99.90
14331;DHT22;7249;49.376;11.080;2023-12-20T07:45:52;4.90;99.90
14331;DHT22;7249;49.376;11.080;2023-12-20T07:48:18;5.00;99.90
14331;DHT22;7249;49.376;11.080;2023-12-20T07:50:43;4.90;99.90
14331;DHT22;7249;49.376;11.080;2023-12-20T07:53:09;4.90;99.90
14331;DHT22;7249;49.376;11.080;2023-12-20T07:55:34;4.90;99.90
14331;DHT22;7249;49.376;11.080;2023-12-20T07:58:00;5.00;99.90
14331;DHT22;7249;49.376;11.080;2023-12-20T08:00:26;4.90;99.90
14331;DHT22;7249;49.376;11.080;2023-12-20T08:02:52;5.00;99.90
14331;DHT22;7249;49.376;11.080;2023-12-20T08:05:18;5.00;99.90
14331;DHT22;7249;49.376;11.080;2023-12-20T08:07:43;5.00;99.90
14331;DHT22;7249;49.376;11.080;2023-12-20T08:10:09;5.00;99.90
14331;DHT22;7249;49.376;11.080;2023-12-20T08:12:35;5.10;99.90
14331;DHT22;7249;49.376;11.080;2023-12-20T08:15:02;5.10;99.90
14331;DHT22;7249;49.376;11.080;2023-12-20T08:17:29;5.20;99.90
14331;DHT22;7249;49.376;11.080;2023-12-20T08:19:54;5.10;99.90
14331;DHT22;7249;49.376;11.080;2023-12-20T08:22:20;5.10;99.90
14331;DHT22;7249;49.376;11.080;2023-12-20T08:24:46;5.20;99.90
14331;DHT22;7249;49.376;11.080;2023-12-20T08:27:11;5.20;99.90
14331;DHT22;7249;49.376;11.080;2023-12-20T08:29:37;5.20;99.90
14331;DHT22;7249;49.376;11.080;2023-12-20T08:32:02;5.20;99.90
14331;DHT22;7249;49.376;11.080;2023-12-20T08:34:28;5.30;99.90
14331;DHT22;7249;49.376;11.080;2023-12-20T08:36:54;5.30;99.90
14331;DHT22;7249;49.376;11.080;2023-12-20T08:39:19;5.30;99.90
14331;DHT22;7249;49.376;11.080;2023-12-20T08:41:45;5.40;99.90
14331;DHT22;7249;49.376;11.080;2023-12-20T08:44:10;5.50;99.90
14331;DHT22;7249;49.376;11.080;2023-12-20T08:46:36;5.50;99.90
14331;DHT22;7249;49.376;11.080;2023-12-20T08:49:02;5.50;99.90
14331;DHT22;7249;49.376;11.080;2023-12-20T08:51:28;5.50;99.90
14331;DHT22;7249;49.376;11.080;2023-12-20T08:53:53;5.50;99.90
14331;DHT22;7249;49.376;11.080;2023-12-20T08:56:19;5.60;99.90
14331;DHT22;7249;49.376;11.080;2023-12-20T08:58:46;5.60;99.90
14331;DHT22;7249;49.376;11.080;2023-12-20T09:01:12;5.70;99.90
14331;DHT22;7249;49.376;11.080;2023-12-20T09:03:39;5.70;99.90
14331;DHT22;7249;49.376;11.080;2023-12-20T09:06:05;5.70;99.90
14331;DHT22;7249;49.376;11.080;2023-12-20T09:08:31;5.70;99.90
14331;DHT22;7249;49.376;11.080;2023-12-20T09:10:56;5.70;99.90
14331;DHT22;7249;49.376;11.080;2023-12-20T09:13:22;5.70;99.90
14331;DHT22;7249;49.376;11.080;2023-12-20T09:15:57;5.70;99.90
14331;DHT22;7249;49.376;11.080;2023-12-20T09:18:22;5.80;99.90
14331;DHT22;7249;49.376;11.080;2023-12-20T09:20:48;5.80;99.90
14331;DHT22;7249;49.376;11.080;2023-12-20T09:23:14;5.80;99.90
14331;DHT22;7249;49.376;11.080;2023-12-20T09:25:39;5.90;99.90
14331;DHT22;7249;49.376;11.080;2023-12-20T09:28:05;5.80;99.90
14331;DHT22;7249;49.376;11.080;2023-12-20T09:30:31;5.80;99.90
14331;DHT22;7249;49.376;11.080;2023-12-20T09:32:57;5.70;99.90
14331;DHT22;7249;49.376;11.080;2023-12-20T09:35:23;5.60;99.90
14331;DHT22;7249;49.376;11.080;2023-12-20T09:37:49;5.50;99.90
14331;DHT22;7249;49.376;11.080;2023-12-20T09:40:19;5.40;99.90
14331;DHT22;7249;49.376;11.080;2023-12-20T09:42:57;5.30;99.90
14331;DHT22;7249;49.376;11.080;2023-12-20T09:45:23;5.30;99.90
14331;DHT22;7249;49.376;11.080;2023-12-20T09:47:55;5.30;99.90
14331;DHT22;7249;49.376;11.080;2023-12-20T09:50:22;5.20;99.90
14331;DHT22;7249;49.376;11.080;2023-12-20T09:52:52;5.30;99.90
14331;DHT22;7249;49.376;11.080;2023-12-20T09:55:19;5.30;99.90
14331;DHT22;7249;49.376;11.080;2023-12-20T09:57:46;5.40;99.90
14331;DHT22;7249;49.376;11.080;2023-12-20T10:00:12;5.60;99.90
14331;DHT22;7249;49.376;11.080;2023-12-20T10:05:18;5.80;99.90
14331;DHT22;7249;49.376;11.080;2023-12-20T10:07:49;6.00;99.90
14331;DHT22;7249;49.376;11.080;2023-12-20T10:10:14;6.20;99.90
14331;DHT22;7249;49.376;11.080;2023-12-20T10:12:40;6.50;99.90
14331;DHT22;7249;49.376;11.080;2023-12-20T10:15:06;6.70;99.90
14331;DHT22;7249;49.376;11.080;2023-12-20T10:17:32;6.80;99.90
14331;DHT22;7249;49.376;11.080;2023-12-20T10:19:58;6.80;99.90
14331;DHT22;7249;49.376;11.080;2023-12-20T10:22:24;6.90;99.90
14331;DHT22;7249;49.376;11.080;2023-12-20T10:24:49;6.90;99.90
14331;DHT22;7249;49.376;11.080;2023-12-20T10:27:18;6.90;99.90
14331;DHT22;7249;49.376;11.080;2023-12-20T10:29:45;6.80;99.90
14331;DHT22;7249;49.376;11.080;2023-12-20T10:32:24;6.70;99.90
14331;DHT22;7249;49.376;11.080;2023-12-20T10:34:54;6.70;99.90
14331;DHT22;7249;49.376;11.080;2023-12-20T10:37:20;6.70;99.90
14331;DHT22;7249;49.376;11.080;2023-12-20T10:39:50;6.70;99.90
14331;DHT22;7249;49.376;11.080;2023-12-20T10:42:16;6.60;99.90
14331;DHT22;7249;49.376;11.080;2023-12-20T10:44:43;6.60;99.90
14331;DHT22;7249;49.376;11.080;2023-12-20T10:47:09;6.60;99.90
14331;DHT22;7249;49.376;11.080;2023-12-20T10:49:37;6.50;99.90
14331;DHT22;7249;49.376;11.080;2023-12-20T10:52:05;6.50;99.90
14331;DHT22;7249;49.376;11.080;2023-12-20T10:54:32;6.50;99.90
14331;DHT22;7249;49.376;11.080;2023-12-20T10:56:58;6.60;99.90
14331;DHT22;7249;49.376;11.080;2023-12-20T10:59:28;6.60;99.90
14331;DHT22;7249;49.376;11.080;2023-12-20T11:01:55;6.60;99.90
14331;DHT22;7249;49.376;11.080;2023-12-20T11:07:28;6.60;99.90
14331;DHT22;7249;49.376;11.080;2023-12-20T11:13:22;6.40;99.90
14331;DHT22;7249;49.376;11.080;2023-12-20T11:15:48;6.30;99.90
14331;DHT22;7249;49.376;11.080;2023-12-20T11:18:15;6.30;99.90
14331;DHT22;7249;49.376;11.080;2023-12-20T11:20:41;6.30;99.90
14331;DHT22;7249;49.376;11.080;2023-12-20T11:23:10;6.30;99.90
14331;DHT22;7249;49.376;11.080;2023-12-20T11:25:56;6.30;99.90
14331;DHT22;7249;49.376;11.080;2023-12-20T11:28:25;6.30;99.90
14331;DHT22;7249;49.376;11.080;2023-12-20T11:30:51;6.40;99.90
14331;DHT22;7249;49.376;11.080;2023-12-20T11:33:24;6.30;99.90
14331;DHT22;7249;49.376;11.080;2023-12-20T11:35:51;6.30;99.90
14331;DHT22;7249;49.376;11.080;2023-12-20T11:38:17;6.30;99.90
14331;DHT22;7249;49.376;11.080;2023-12-20T11:40:43;6.20;99.90
14331;DHT22;7249;49.376;11.080;2023-12-20T11:43:09;6.20;99.90
14331;DHT22;7249;49.376;11.080;2023-12-20T11:45:35;6.10;99.90
14331;DHT22;7249;49.376;11.080;2023-12-20T11:48:04;6.10;99.90
14331;DHT22;7249;49.376;11.080;2023-12-20T11:50:31;6.10;99.90
14331;DHT22;7249;49.376;11.080;2023-12-20T11:52:57;6.00;99.90
14331;DHT22;7249;49.376;11.080;2023-12-20T11:55:23;6.00;99.90
14331;DHT22;7249;49.376;11.080;2023-12-20T11:57:52;5.90;99.90
14331;DHT22;7249;49.376;11.080;2023-12-20T12:00:18;6.00;99.90
14331;DHT22;7249;49.376;11.080;2023-12-20T12:02:58;6.00;99.90
14331;DHT22;7249;49.376;11.080;2023-12-20T12:05:24;6.00;99.90
14331;DHT22;7249;49.376;11.080;2023-12-20T12:07:49;6.10;99.90
14331;DHT22;7249;49.376;11.080;2023-12-20T12:10:15;6.10;99.90
14331;DHT22;7249;49.376;11.080;2023-12-20T12:12:41;6.20;99.90
14331;DHT22;7249;49.376;11.080;2023-12-20T12:15:06;6.30;99.90
14331;DHT22;7249;49.376;11.080;2023-12-20T12:17:33;6.30;99.90
14331;DHT22;7249;49.376;11.080;2023-12-20T12:20:03;6.30;99.90
14331;DHT22;7249;49.376;11.080;2023-12-20T12:22:30;6.30;99.90
14331;DHT22;7249;49.376;11.080;2023-12-20T12:24:59;6.40;99.90
14331;DHT22;7249;49.376;11.080;2023-12-20T12:27:26;6.50;99.90
14331;DHT22;7249;49.376;11.080;2023-12-20T12:30:05;6.50;99.90
14331;DHT22;7249;49.376;11.080;2023-12-20T12:32:32;6.60;99.90
14331;DHT22;7249;49.376;11.080;2023-12-20T12:34:58;6.60;99.90
14331;DHT22;7249;49.376;11.080;2023-12-20T12:37:24;6.50;99.90
14331;DHT22;7249;49.376;11.080;2023-12-20T12:39:50;6.40;99.90
14331;DHT22;7249;49.376;11.080;2023-12-20T12:42:15;6.30;99.90
14331;DHT22;7249;49.376;11.080;2023-12-20T12:44:41;6.30;99.90
14331;DHT22;7249;49.376;11.080;2023-12-20T12:47:06;6.40;99.90
14331;DHT22;7249;49.376;11.080;2023-12-20T12:49:33;6.50;99.90
14331;DHT22;7249;49.376;11.080;2023-12-20T12:51:59;6.50;99.90
14331;DHT22;7249;49.376;11.080;2023-12-20T12:54:24;6.70;99.90
14331;DHT22;7249;49.376;11.080;2023-12-20T12:56:50;6.70;99.90
14331;DHT22;7249;49.376;11.080;2023-12-20T12:59:18;6.70;99.90
14331;DHT22;7249;49.376;11.080;2023-12-20T13:01:43;6.70;99.90
14331;DHT22;7249;49.376;11.080;2023-12-20T13:04:09;6.60;99.90
14331;DHT22;7249;49.376;11.080;2023-12-20T13:06:38;6.60;99.90
14331;DHT22;7249;49.376;11.080;2023-12-20T13:09:04;6.60;99.90
14331;DHT22;7249;49.376;11.080;2023-12-20T13:11:30;6.60;99.90
14331;DHT22;7249;49.376;11.080;2023-12-20T13:13:57;6.70;99.90
14331;DHT22;7249;49.376;11.080;2023-12-20T13:16:23;6.70;99.90
14331;DHT22;7249;49.376;11.080;2023-12-20T13:18:50;6.80;99.90
14331;DHT22;7249;49.376;11.080;2023-12-20T13:21:15;6.90;99.90
14331;DHT22;7249;49.376;11.080;2023-12-20T13:23:42;6.90;99.90
14331;DHT22;7249;49.376;11.080;2023-12-20T13:26:07;6.80;99.90
14331;DHT22;7249;49.376;11.080;2023-12-20T13:28:33;6.70;99.90
14331;DHT22;7249;49.376;11.080;2023-12-20T13:30:58;6.70;99.90
14331;DHT22;7249;49.376;11.080;2023-12-20T13:33:25;6.70;99.90
14331;DHT22;7249;49.376;11.080;2023-12-20T13:35:50;6.60;99.90
14331;DHT22;7249;49.376;11.080;2023-12-20T13:38:16;6.60;99.90
14331;DHT22;7249;49.376;11.080;2023-12-20T13:40:42;6.50;99.90
14331;DHT22;7249;49.376;11.080;2023-12-20T13:43:08;6.50;99.90
14331;DHT22;7249;49.376;11.080;2023-12-20T13:45:35;6.50;99.90
14331;DHT22;7249;49.376;11.080;2023-12-20T13:48:01;6.50;99.90
14331;DHT22;7249;49.376;11.080;2023-12-20T13:50:27;6.40;99.90
14331;DHT22;7249;49.376;11.080;2023-12-20T13:52:52;6.40;99.90
14331;DHT22;7249;49.376;11.080;2023-12-20T13:55:18;6.40;99.90
14331;DHT22;7249;49.376;11.080;2023-12-20T13:57:47;6.40;99.90
14331;DHT22;7249;49.376;11.080;2023-12-20T14:00:14;6.40;99.90
14331;DHT22;7249;49.376;11.080;2023-12-20T14:02:41;6.30;99.90
14331;DHT22;7249;49.376;11.080;2023-12-20T14:05:07;6.20;99.90
14331;DHT22;7249;49.376;11.080;2023-12-20T14:07:33;6.20;99.90
14331;DHT22;7249;49.376;11.080;2023-12-20T14:09:58;6.10;99.90
14331;DHT22;7249;49.376;11.080;2023-12-20T14:12:25;6.20;99.90
14331;DHT22;7249;49.376;11.080;2023-12-20T14:14:50;6.10;99.90
14331;DHT22;7249;49.376;11.080;2023-12-20T14:17:17;6.20;99.90
14331;DHT22;7249;49.376;11.080;2023-12-20T14:19:43;6.20;99.90
14331;DHT22;7249;49.376;11.080;2023-12-20T14:22:09;6.10;99.90
14331;DHT22;7249;49.376;11.080;2023-12-20T14:24:35;6.10;99.90
14331;DHT22;7249;49.376;11.080;2023-12-20T14:27:01;6.00;99.90
14331;DHT22;7249;49.376;11.080;2023-12-20T14:29:27;6.00;99.90
14331;DHT22;7249;49.376;11.080;2023-12-20T14:31:53;5.90;99.90
14331;DHT22;7249;49.376;11.080;2023-12-20T14:34:18;5.80;99.90
14331;DHT22;7249;49.376;11.080;2023-12-20T14:36:44;5.80;99.90
14331;DHT22;7249;49.376;11.080;2023-12-20T14:39:09;5.70;99.90
14331;DHT22;7249;49.376;11.080;2023-12-20T14:41:38;5.70;99.90
14331;DHT22;7249;49.376;11.080;2023-12-20T14:44:05;5.70;99.90
14331;DHT22;7249;49.376;11.080;2023-12-20T14:46:31;5.70;99.90
14331;DHT22;7249;49.376;11.080;2023-12-20T14:48:56;5.70;99.90
14331;DHT22;7249;49.376;11.080;2023-12-20T14:51:22;5.70;99.90
14331;DHT22;7249;49.376;11.080;2023-12-20T14:53:48;5.60;99.90
14331;DHT22;7249;49.376;11.080;2023-12-20T14:56:13;5.60;99.90
14331;DHT22;7249;49.376;11.080;2023-12-20T14:58:40;5.60;99.90
14331;DHT22;7249;49.376;11.080;2023-12-20T15:01:06;5.60;99.90
14331;DHT22;7249;49.376;11.080;2023-12-20T15:03:34;5.50;99.90
14331;DHT22;7249;49.376;11.080;2023-12-20T15:06:00;5.50;99.90
14331;DHT22;7249;49.376;11.080;2023-12-20T15:08:26;5.60;99.90
14331;DHT22;7249;49.376;11.080;2023-12-20T15:10:51;5.50;99.90
14331;DHT22;7249;49.376;11.080;2023-12-20T15:13:17;5.50;99.90
14331;DHT22;7249;49.376;11.080;2023-12-20T15:15:42;5.50;99.90
14331;DHT22;7249;49.376;11.080;2023-12-20T15:18:08;5.50;99.90
14331;DHT22;7249;49.376;11.080;2023-12-20T15:20:34;5.40;99.90
14331;DHT22;7249;49.376;11.080;2023-12-20T15:23:03;5.40;99.90
14331;DHT22;7249;49.376;11.080;2023-12-20T15:25:32;5.40;99.90
14331;DHT22;7249;49.376;11.080;2023-12-20T15:27:57;5.40;99.90
14331;DHT22;7249;49.376;11.080;2023-12-20T15:30:23;5.40;99.90
14331;DHT22;7249;49.376;11.080;2023-12-20T15:32:50;5.40;99.90
14331;DHT22;7249;49.376;11.080;2023-12-20T15:35:15;5.40;99.90
14331;DHT22;7249;49.376;11.080;2023-12-20T15:37:41;5.40;99.90
14331;DHT22;7249;49.376;11.080;2023-12-20T15:40:10;5.40;99.90
14331;DHT22;7249;49.376;11.080;2023-12-20T15:42:37;5.30;99.90
14331;DHT22;7249;49.376;11.080;2023-12-20T15:45:05;5.30;99.90
14331;DHT22;7249;49.376;11.080;2023-12-20T15:47:31;5.30;99.90